sensor_id;sensor_type;location;lat;lon;timestamp;P1;durP1;ratioP1;P2;durP2;ratioP2
15946;SDS011;8072;52.554;7.966;2022-10-16T00:01:51;4.67;;;2.00;;
15946;SDS011;8072;52.554;7.966;2022-10-16T00:04:17;5.37;;;2.30;;
15946;SDS011;8072;52.554;7.966;2022-10-16T00:06:43;4.00;;;2.30;;
15946;SDS011;8072;52.554;7.966;2022-10-16T00:09:09;3.17;;;2.30;;
15946;SDS011;8072;52.554;7.966;2022-10-16T00:11:35;5.33;;;2.27;;
15946;SDS011;8072;52.554;7.966;2022-10-16T00:14:06;2.77;;;2.20;;
15946;SDS011;8072;52.554;7.966;2022-10-16T00:16:35;4.43;;;2.43;;
15946;SDS011;8072;52.554;7.966;2022-10-16T00:19:02;2.87;;;2.27;;
15946;SDS011;8072;52.554;7.966;2022-10-16T00:21:28;4.00;;;2.30;;
15946;SDS011;8072;52.554;7.966;2022-10-16T00:23:56;5.63;;;2.73;;
15946;SDS011;8072;52.554;7.966;2022-10-16T00:26:30;2.57;;;2.10;;
15946;SDS011;8072;52.554;7.966;2022-10-16T00:28:57;3.67;;;2.57;;
15946;SDS011;8072;52.554;7.966;2022-10-16T00:31:23;9.50;;;2.37;;
15946;SDS011;8072;52.554;7.966;2022-10-16T00:33:49;3.20;;;2.47;;
15946;SDS011;8072;52.554;7.966;2022-10-16T00:36:17;4.30;;;2.40;;
15946;SDS011;8072;52.554;7.966;2022-10-16T00:38:45;5.40;;;2.57;;
15946;SDS011;8072;52.554;7.966;2022-10-16T00:41:12;3.83;;;2.20;;
15946;SDS011;8072;52.554;7.966;2022-10-16T00:51:34;3.70;;;2.30;;
15946;SDS011;8072;52.554;7.966;2022-10-16T00:54:01;5.30;;;2.77;;
15946;SDS011;8072;52.554;7.966;2022-10-16T00:56:29;4.37;;;2.90;;
15946;SDS011;8072;52.554;7.966;2022-10-16T00:58:55;6.50;;;2.60;;
15946;SDS011;8072;52.554;7.966;2022-10-16T01:01:20;4.13;;;2.60;;
15946;SDS011;8072;52.554;7.966;2022-10-16T01:03:46;7.77;;;2.40;;
15946;SDS011;8072;52.554;7.966;2022-10-16T01:06:21;5.40;;;2.80;;
15946;SDS011;8072;52.554;7.966;2022-10-16T01:09:03;4.30;;;2.83;;
15946;SDS011;8072;52.554;7.966;2022-10-16T01:14:47;6.50;;;2.83;;
15946;SDS011;8072;52.554;7.966;2022-10-16T01:17:22;6.17;;;3.03;;
15946;SDS011;8072;52.554;7.966;2022-10-16T01:23:03;5.50;;;2.93;;
15946;SDS011;8072;52.554;7.966;2022-10-16T01:28:48;5.70;;;3.10;;
15946;SDS011;8072;52.554;7.966;2022-10-16T01:31:18;5.20;;;3.43;;
15946;SDS011;8072;52.554;7.966;2022-10-16T01:33:51;5.63;;;2.90;;
15946;SDS011;8072;52.554;7.966;2022-10-16T01:36:29;7.40;;;3.77;;
15946;SDS011;8072;52.554;7.966;2022-10-16T01:39:02;6.87;;;3.27;;
15946;SDS011;8072;52.554;7.966;2022-10-16T01:42:03;7.63;;;3.67;;
15946;SDS011;8072;52.554;7.966;2022-10-16T01:44:27;10.30;;;3.63;;
15946;SDS011;8072;52.554;7.966;2022-10-16T01:46:56;6.47;;;3.80;;
15946;SDS011;8072;52.554;7.966;2022-10-16T01:49:23;6.23;;;3.97;;
15946;SDS011;8072;52.554;7.966;2022-10-16T01:51:52;8.70;;;3.77;;
15946;SDS011;8072;52.554;7.966;2022-10-16T01:54:21;7.27;;;4.23;;
15946;SDS011;8072;52.554;7.966;2022-10-16T01:56:50;6.03;;;3.97;;
15946;SDS011;8072;52.554;7.966;2022-10-16T01:59:18;9.60;;;4.73;;
15946;SDS011;8072;52.554;7.966;2022-10-16T02:01:50;7.60;;;4.43;;
15946;SDS011;8072;52.554;7.966;2022-10-16T02:06:48;7.57;;;4.50;;
15946;SDS011;8072;52.554;7.966;2022-10-16T02:09:13;10.10;;;4.73;;
15946;SDS011;8072;52.554;7.966;2022-10-16T02:11:42;8.60;;;4.77;;
15946;SDS011;8072;52.554;7.966;2022-10-16T02:14:08;8.97;;;5.10;;
15946;SDS011;8072;52.554;7.966;2022-10-16T02:16:36;8.33;;;4.37;;
15946;SDS011;8072;52.554;7.966;2022-10-16T02:19:06;11.37;;;5.80;;
15946;SDS011;8072;52.554;7.966;2022-10-16T02:21:35;12.17;;;5.40;;
15946;SDS011;8072;52.554;7.966;2022-10-16T02:26:57;11.03;;;5.50;;
15946;SDS011;8072;52.554;7.966;2022-10-16T02:29:29;9.67;;;5.50;;
15946;SDS011;8072;52.554;7.966;2022-10-16T02:32:00;10.10;;;6.43;;
15946;SDS011;8072;52.554;7.966;2022-10-16T02:34:31;15.13;;;6.47;;
15946;SDS011;8072;52.554;7.966;2022-10-16T02:37:00;11.93;;;6.53;;
15946;SDS011;8072;52.554;7.966;2022-10-16T02:39:27;13.50;;;6.90;;
15946;SDS011;8072;52.554;7.966;2022-10-16T02:41:54;11.27;;;6.97;;
15946;SDS011;8072;52.554;7.966;2022-10-16T02:44:20;15.40;;;6.63;;
15946;SDS011;8072;52.554;7.966;2022-10-16T02:46:45;13.43;;;7.07;;
15946;SDS011;8072;52.554;7.966;2022-10-16T02:49:11;17.97;;;7.43;;
15946;SDS011;8072;52.554;7.966;2022-10-16T02:51:37;12.87;;;7.07;;
15946;SDS011;8072;52.554;7.966;2022-10-16T02:54:03;13.47;;;7.90;;
15946;SDS011;8072;52.554;7.966;2022-10-16T02:56:29;15.50;;;7.90;;
15946;SDS011;8072;52.554;7.966;2022-10-16T02:58:56;13.20;;;7.90;;
15946;SDS011;8072;52.554;7.966;2022-10-16T03:01:24;13.73;;;8.63;;
15946;SDS011;8072;52.554;7.966;2022-10-16T03:03:50;15.07;;;9.13;;
15946;SDS011;8072;52.554;7.966;2022-10-16T03:06:16;14.03;;;7.83;;
15946;SDS011;8072;52.554;7.966;2022-10-16T03:08:41;14.13;;;9.00;;
15946;SDS011;8072;52.554;7.966;2022-10-16T03:11:07;15.00;;;8.40;;
15946;SDS011;8072;52.554;7.966;2022-10-16T03:13:33;17.70;;;9.07;;
15946;SDS011;8072;52.554;7.966;2022-10-16T03:15:59;13.83;;;9.03;;
15946;SDS011;8072;52.554;7.966;2022-10-16T03:18:25;16.53;;;9.33;;
15946;SDS011;8072;52.554;7.966;2022-10-16T03:20:51;12.90;;;8.50;;
15946;SDS011;8072;52.554;7.966;2022-10-16T03:23:17;15.17;;;9.33;;
15946;SDS011;8072;52.554;7.966;2022-10-16T03:25:42;14.53;;;9.97;;
15946;SDS011;8072;52.554;7.966;2022-10-16T03:28:08;17.83;;;9.63;;
15946;SDS011;8072;52.554;7.966;2022-10-16T03:30:34;17.17;;;9.83;;
15946;SDS011;8072;52.554;7.966;2022-10-16T03:33:00;13.33;;;9.60;;
15946;SDS011;8072;52.554;7.966;2022-10-16T03:35:27;17.10;;;10.40;;
15946;SDS011;8072;52.554;7.966;2022-10-16T03:37:52;20.20;;;10.93;;
15946;SDS011;8072;52.554;7.966;2022-10-16T03:40:18;18.33;;;10.60;;
15946;SDS011;8072;52.554;7.966;2022-10-16T03:42:44;21.43;;;9.73;;
15946;SDS011;8072;52.554;7.966;2022-10-16T03:45:10;17.57;;;9.83;;
15946;SDS011;8072;52.554;7.966;2022-10-16T03:47:36;20.87;;;9.97;;
15946;SDS011;8072;52.554;7.966;2022-10-16T03:50:03;15.73;;;9.43;;
15946;SDS011;8072;52.554;7.966;2022-10-16T03:52:29;15.97;;;9.40;;
15946;SDS011;8072;52.554;7.966;2022-10-16T03:54:57;17.20;;;9.60;;
15946;SDS011;8072;52.554;7.966;2022-10-16T03:57:23;14.47;;;9.10;;
15946;SDS011;8072;52.554;7.966;2022-10-16T03:59:49;16.40;;;9.47;;
15946;SDS011;8072;52.554;7.966;2022-10-16T04:02:16;18.23;;;9.07;;
15946;SDS011;8072;52.554;7.966;2022-10-16T04:04:41;16.93;;;8.50;;
15946;SDS011;8072;52.554;7.966;2022-10-16T04:07:07;12.93;;;8.50;;
15946;SDS011;8072;52.554;7.966;2022-10-16T04:09:33;14.73;;;7.80;;
15946;SDS011;8072;52.554;7.966;2022-10-16T04:11:59;14.27;;;8.47;;
15946;SDS011;8072;52.554;7.966;2022-10-16T04:14:25;15.30;;;8.93;;
15946;SDS011;8072;52.554;7.966;2022-10-16T04:16:50;13.10;;;7.97;;
15946;SDS011;8072;52.554;7.966;2022-10-16T04:19:16;13.67;;;8.50;;
15946;SDS011;8072;52.554;7.966;2022-10-16T04:21:44;12.13;;;7.03;;
15946;SDS011;8072;52.554;7.966;2022-10-16T04:24:09;12.87;;;7.70;;
15946;SDS011;8072;52.554;7.966;2022-10-16T04:26:36;15.00;;;7.30;;
15946;SDS011;8072;52.554;7.966;2022-10-16T04:29:03;12.37;;;7.40;;
15946;SDS011;8072;52.554;7.966;2022-10-16T04:31:29;11.57;;;6.20;;
15946;SDS011;8072;52.554;7.966;2022-10-16T04:33:55;13.77;;;6.60;;
15946;SDS011;8072;52.554;7.966;2022-10-16T04:36:21;9.23;;;6.03;;
15946;SDS011;8072;52.554;7.966;2022-10-16T04:38:47;13.37;;;6.00;;
15946;SDS011;8072;52.554;7.966;2022-10-16T04:41:20;11.33;;;6.10;;
15946;SDS011;8072;52.554;7.966;2022-10-16T04:43:46;11.87;;;6.17;;
15946;SDS011;8072;52.554;7.966;2022-10-16T04:46:12;11.03;;;6.13;;
15946;SDS011;8072;52.554;7.966;2022-10-16T04:48:38;8.67;;;5.57;;
15946;SDS011;8072;52.554;7.966;2022-10-16T04:51:04;7.90;;;5.73;;
15946;SDS011;8072;52.554;7.966;2022-10-16T04:53:29;9.10;;;5.80;;
15946;SDS011;8072;52.554;7.966;2022-10-16T04:55:55;11.87;;;6.07;;
15946;SDS011;8072;52.554;7.966;2022-10-16T04:58:22;7.83;;;5.43;;
15946;SDS011;8072;52.554;7.966;2022-10-16T05:00:48;8.83;;;5.60;;
15946;SDS011;8072;52.554;7.966;2022-10-16T05:03:13;9.47;;;6.17;;
15946;SDS011;8072;52.554;7.966;2022-10-16T05:05:43;7.20;;;5.17;;
15946;SDS011;8072;52.554;7.966;2022-10-16T05:08:09;9.80;;;5.90;;
15946;SDS011;8072;52.554;7.966;2022-10-16T05:10:36;9.57;;;5.47;;
15946;SDS011;8072;52.554;7.966;2022-10-16T05:13:02;9.07;;;5.67;;
15946;SDS011;8072;52.554;7.966;2022-10-16T05:15:28;9.57;;;5.37;;
15946;SDS011;8072;52.554;7.966;2022-10-16T05:17:54;7.13;;;5.10;;
15946;SDS011;8072;52.554;7.966;2022-10-16T05:20:22;10.50;;;5.47;;
15946;SDS011;8072;52.554;7.966;2022-10-16T05:22:48;9.57;;;5.53;;
15946;SDS011;8072;52.554;7.966;2022-10-16T05:25:14;9.13;;;5.37;;
15946;SDS011;8072;52.554;7.966;2022-10-16T05:27:40;12.23;;;5.70;;
15946;SDS011;8072;52.554;7.966;2022-10-16T05:30:08;8.93;;;5.33;;
15946;SDS011;8072;52.554;7.966;2022-10-16T05:32:34;8.43;;;5.97;;
15946;SDS011;8072;52.554;7.966;2022-10-16T05:35:00;8.20;;;5.67;;
15946;SDS011;8072;52.554;7.966;2022-10-16T05:37:29;9.43;;;5.47;;
15946;SDS011;8072;52.554;7.966;2022-10-16T05:39:55;8.60;;;5.30;;
15946;SDS011;8072;52.554;7.966;2022-10-16T05:42:20;6.93;;;5.17;;
15946;SDS011;8072;52.554;7.966;2022-10-16T05:44:46;6.93;;;5.33;;
15946;SDS011;8072;52.554;7.966;2022-10-16T05:47:12;8.70;;;5.77;;
15946;SDS011;8072;52.554;7.966;2022-10-16T05:49:39;7.20;;;5.23;;
15946;SDS011;8072;52.554;7.966;2022-10-16T05:52:05;10.07;;;5.23;;
15946;SDS011;8072;52.554;7.966;2022-10-16T05:54:31;8.53;;;5.47;;
15946;SDS011;8072;52.554;7.966;2022-10-16T05:56:57;8.27;;;5.80;;
15946;SDS011;8072;52.554;7.966;2022-10-16T05:59:22;9.30;;;5.57;;
15946;SDS011;8072;52.554;7.966;2022-10-16T06:01:48;8.50;;;5.53;;
15946;SDS011;8072;52.554;7.966;2022-10-16T06:04:14;9.03;;;5.77;;
15946;SDS011;8072;52.554;7.966;2022-10-16T06:06:40;7.53;;;5.10;;
15946;SDS011;8072;52.554;7.966;2022-10-16T06:09:05;9.27;;;5.33;;
15946;SDS011;8072;52.554;7.966;2022-10-16T06:11:32;8.13;;;5.23;;
15946;SDS011;8072;52.554;7.966;2022-10-16T06:13:59;9.13;;;5.13;;
15946;SDS011;8072;52.554;7.966;2022-10-16T06:16:32;7.80;;;4.57;;
15946;SDS011;8072;52.554;7.966;2022-10-16T06:19:02;7.97;;;5.17;;
15946;SDS011;8072;52.554;7.966;2022-10-16T06:21:31;9.80;;;4.90;;
15946;SDS011;8072;52.554;7.966;2022-10-16T06:23:57;5.63;;;4.40;;
15946;SDS011;8072;52.554;7.966;2022-10-16T06:26:24;6.20;;;4.23;;
15946;SDS011;8072;52.554;7.966;2022-10-16T06:28:51;6.63;;;4.47;;
15946;SDS011;8072;52.554;7.966;2022-10-16T06:31:19;6.60;;;4.33;;
15946;SDS011;8072;52.554;7.966;2022-10-16T06:33:45;5.43;;;4.60;;
15946;SDS011;8072;52.554;7.966;2022-10-16T06:36:15;6.90;;;4.30;;
15946;SDS011;8072;52.554;7.966;2022-10-16T06:38:42;6.17;;;4.33;;
15946;SDS011;8072;52.554;7.966;2022-10-16T06:41:16;5.90;;;3.93;;
15946;SDS011;8072;52.554;7.966;2022-10-16T06:43:43;7.10;;;4.27;;
15946;SDS011;8072;52.554;7.966;2022-10-16T06:46:11;7.60;;;4.40;;
15946;SDS011;8072;52.554;7.966;2022-10-16T06:48:38;5.73;;;4.33;;
15946;SDS011;8072;52.554;7.966;2022-10-16T06:53:40;6.43;;;3.83;;
15946;SDS011;8072;52.554;7.966;2022-10-16T06:56:15;8.27;;;4.40;;
15946;SDS011;8072;52.554;7.966;2022-10-16T06:58:44;5.93;;;4.30;;
15946;SDS011;8072;52.554;7.966;2022-10-16T07:01:11;6.07;;;4.37;;
15946;SDS011;8072;52.554;7.966;2022-10-16T07:03:38;6.47;;;3.90;;
15946;SDS011;8072;52.554;7.966;2022-10-16T07:06:06;5.00;;;3.80;;
15946;SDS011;8072;52.554;7.966;2022-10-16T07:08:33;5.77;;;4.00;;
15946;SDS011;8072;52.554;7.966;2022-10-16T07:11:00;6.43;;;3.90;;
15946;SDS011;8072;52.554;7.966;2022-10-16T07:13:27;5.47;;;3.63;;
15946;SDS011;8072;52.554;7.966;2022-10-16T07:15:54;7.40;;;4.23;;
15946;SDS011;8072;52.554;7.966;2022-10-16T07:18:19;7.80;;;4.00;;
15946;SDS011;8072;52.554;7.966;2022-10-16T07:20:45;7.50;;;3.83;;
15946;SDS011;8072;52.554;7.966;2022-10-16T07:23:11;8.07;;;4.03;;
15946;SDS011;8072;52.554;7.966;2022-10-16T07:25:37;7.37;;;3.97;;
15946;SDS011;8072;52.554;7.966;2022-10-16T07:28:03;7.13;;;4.07;;
15946;SDS011;8072;52.554;7.966;2022-10-16T07:30:28;8.53;;;3.97;;
15946;SDS011;8072;52.554;7.966;2022-10-16T07:32:54;11.83;;;4.63;;
15946;SDS011;8072;52.554;7.966;2022-10-16T07:35:20;5.30;;;4.10;;
15946;SDS011;8072;52.554;7.966;2022-10-16T07:37:46;4.90;;;3.23;;
15946;SDS011;8072;52.554;7.966;2022-10-16T07:40:11;5.23;;;3.33;;
15946;SDS011;8072;52.554;7.966;2022-10-16T07:42:37;5.83;;;3.23;;
15946;SDS011;8072;52.554;7.966;2022-10-16T07:45:03;5.33;;;3.40;;
15946;SDS011;8072;52.554;7.966;2022-10-16T07:47:30;6.37;;;3.57;;
15946;SDS011;8072;52.554;7.966;2022-10-16T07:49:55;5.77;;;3.07;;
15946;SDS011;8072;52.554;7.966;2022-10-16T07:52:21;4.17;;;2.63;;
15946;SDS011;8072;52.554;7.966;2022-10-16T07:54:47;4.23;;;2.60;;
15946;SDS011;8072;52.554;7.966;2022-10-16T07:57:13;7.00;;;2.97;;
15946;SDS011;8072;52.554;7.966;2022-10-16T07:59:44;6.10;;;2.80;;
15946;SDS011;8072;52.554;7.966;2022-10-16T08:02:11;4.07;;;2.30;;
15946;SDS011;8072;52.554;7.966;2022-10-16T08:04:37;4.13;;;2.30;;
15946;SDS011;8072;52.554;7.966;2022-10-16T08:07:03;3.70;;;2.43;;
15946;SDS011;8072;52.554;7.966;2022-10-16T08:09:28;6.23;;;2.43;;
15946;SDS011;8072;52.554;7.966;2022-10-16T08:11:54;3.33;;;2.03;;
15946;SDS011;8072;52.554;7.966;2022-10-16T08:14:20;6.27;;;2.77;;
15946;SDS011;8072;52.554;7.966;2022-10-16T08:16:46;4.43;;;1.93;;
15946;SDS011;8072;52.554;7.966;2022-10-16T08:19:11;3.80;;;2.30;;
15946;SDS011;8072;52.554;7.966;2022-10-16T08:21:37;3.80;;;2.00;;
15946;SDS011;8072;52.554;7.966;2022-10-16T08:24:03;5.43;;;2.30;;
15946;SDS011;8072;52.554;7.966;2022-10-16T08:26:28;3.97;;;2.13;;
15946;SDS011;8072;52.554;7.966;2022-10-16T08:28:54;3.17;;;1.70;;
15946;SDS011;8072;52.554;7.966;2022-10-16T08:31:20;3.40;;;2.20;;
15946;SDS011;8072;52.554;7.966;2022-10-16T08:33:46;5.07;;;2.47;;
15946;SDS011;8072;52.554;7.966;2022-10-16T08:36:13;3.70;;;2.30;;
15946;SDS011;8072;52.554;7.966;2022-10-16T08:38:39;5.00;;;2.13;;
15946;SDS011;8072;52.554;7.966;2022-10-16T08:41:20;4.63;;;2.13;;
15946;SDS011;8072;52.554;7.966;2022-10-16T08:47:06;2.60;;;1.90;;
15946;SDS011;8072;52.554;7.966;2022-10-16T08:49:44;2.50;;;2.00;;
15946;SDS011;8072;52.554;7.966;2022-10-16T08:52:25;3.37;;;1.93;;
15946;SDS011;8072;52.554;7.966;2022-10-16T08:54:56;4.67;;;2.03;;
15946;SDS011;8072;52.554;7.966;2022-10-16T08:57:23;6.30;;;2.03;;
15946;SDS011;8072;52.554;7.966;2022-10-16T08:59:51;2.37;;;1.90;;
15946;SDS011;8072;52.554;7.966;2022-10-16T09:07:32;7.50;;;2.10;;
15946;SDS011;8072;52.554;7.966;2022-10-16T09:10:15;3.40;;;1.70;;
15946;SDS011;8072;52.554;7.966;2022-10-16T09:15:53;4.53;;;1.70;;
15946;SDS011;8072;52.554;7.966;2022-10-16T09:23:46;4.13;;;1.90;;
15946;SDS011;8072;52.554;7.966;2022-10-16T09:26:13;4.80;;;1.70;;
15946;SDS011;8072;52.554;7.966;2022-10-16T09:28:41;3.67;;;1.63;;
15946;SDS011;8072;52.554;7.966;2022-10-16T09:31:14;3.90;;;1.70;;
15946;SDS011;8072;52.554;7.966;2022-10-16T09:33:45;4.70;;;1.60;;
15946;SDS011;8072;52.554;7.966;2022-10-16T09:36:15;7.23;;;1.57;;
15946;SDS011;8072;52.554;7.966;2022-10-16T09:38:41;3.93;;;1.57;;
15946;SDS011;8072;52.554;7.966;2022-10-16T09:41:17;2.87;;;1.07;;
15946;SDS011;8072;52.554;7.966;2022-10-16T09:43:53;4.23;;;1.60;;
15946;SDS011;8072;52.554;7.966;2022-10-16T09:46:24;3.73;;;1.40;;
15946;SDS011;8072;52.554;7.966;2022-10-16T09:49:05;5.80;;;2.60;;
15946;SDS011;8072;52.554;7.966;2022-10-16T09:51:51;4.37;;;1.30;;
15946;SDS011;8072;52.554;7.966;2022-10-16T09:54:31;3.60;;;1.20;;
15946;SDS011;8072;52.554;7.966;2022-10-16T09:57:06;3.10;;;1.30;;
15946;SDS011;8072;52.554;7.966;2022-10-16T09:59:45;2.73;;;1.50;;
15946;SDS011;8072;52.554;7.966;2022-10-16T10:02:13;5.60;;;1.40;;
15946;SDS011;8072;52.554;7.966;2022-10-16T10:04:41;3.97;;;1.37;;
15946;SDS011;8072;52.554;7.966;2022-10-16T10:07:38;4.97;;;1.53;;
15946;SDS011;8072;52.554;7.966;2022-10-16T10:10:18;3.57;;;1.27;;
15946;SDS011;8072;52.554;7.966;2022-10-16T10:12:46;3.30;;;1.60;;
15946;SDS011;8072;52.554;7.966;2022-10-16T10:15:13;2.40;;;1.17;;
15946;SDS011;8072;52.554;7.966;2022-10-16T10:17:56;3.87;;;1.30;;
15946;SDS011;8072;52.554;7.966;2022-10-16T10:20:24;2.63;;;1.30;;
15946;SDS011;8072;52.554;7.966;2022-10-16T10:23:01;4.03;;;1.23;;
15946;SDS011;8072;52.554;7.966;2022-10-16T10:34:25;5.67;;;1.37;;
15946;SDS011;8072;52.554;7.966;2022-10-16T10:37:09;1.63;;;1.10;;
15946;SDS011;8072;52.554;7.966;2022-10-16T10:39:43;7.63;;;1.27;;
15946;SDS011;8072;52.554;7.966;2022-10-16T10:42:24;2.93;;;1.03;;
15946;SDS011;8072;52.554;7.966;2022-10-16T10:50:29;7.60;;;1.50;;
15946;SDS011;8072;52.554;7.966;2022-10-16T11:01:22;3.80;;;1.20;;
15946;SDS011;8072;52.554;7.966;2022-10-16T11:06:43;1.90;;;1.00;;
15946;SDS011;8072;52.554;7.966;2022-10-16T11:09:11;4.80;;;1.30;;
15946;SDS011;8072;52.554;7.966;2022-10-16T11:11:57;2.23;;;1.20;;
15946;SDS011;8072;52.554;7.966;2022-10-16T11:17:50;5.67;;;1.53;;
15946;SDS011;8072;52.554;7.966;2022-10-16T11:20:42;3.57;;;1.20;;
15946;SDS011;8072;52.554;7.966;2022-10-16T11:23:31;6.77;;;1.30;;
15946;SDS011;8072;52.554;7.966;2022-10-16T11:26:35;5.73;;;1.13;;
15946;SDS011;8072;52.554;7.966;2022-10-16T11:29:09;8.63;;;1.30;;
15946;SDS011;8072;52.554;7.966;2022-10-16T11:31:40;3.63;;;1.10;;
15946;SDS011;8072;52.554;7.966;2022-10-16T11:34:19;4.97;;;1.33;;
15946;SDS011;8072;52.554;7.966;2022-10-16T11:36:56;5.63;;;1.23;;
15946;SDS011;8072;52.554;7.966;2022-10-16T11:39:26;2.20;;;1.23;;
15946;SDS011;8072;52.554;7.966;2022-10-16T11:42:54;5.83;;;1.43;;
15946;SDS011;8072;52.554;7.966;2022-10-16T11:53:04;4.50;;;1.20;;
15946;SDS011;8072;52.554;7.966;2022-10-16T11:55:55;4.43;;;1.27;;
15946;SDS011;8072;52.554;7.966;2022-10-16T12:08:44;5.10;;;1.30;;
15946;SDS011;8072;52.554;7.966;2022-10-16T12:13:51;4.33;;;1.67;;
15946;SDS011;8072;52.554;7.966;2022-10-16T12:16:28;8.60;;;1.20;;
15946;SDS011;8072;52.554;7.966;2022-10-16T12:19:10;6.23;;;1.20;;
15946;SDS011;8072;52.554;7.966;2022-10-16T12:21:38;3.47;;;1.07;;
15946;SDS011;8072;52.554;7.966;2022-10-16T12:24:04;3.87;;;1.50;;
15946;SDS011;8072;52.554;7.966;2022-10-16T12:26:36;6.23;;;1.50;;
15946;SDS011;8072;52.554;7.966;2022-10-16T12:29:14;7.67;;;1.80;;
15946;SDS011;8072;52.554;7.966;2022-10-16T12:31:46;10.53;;;1.47;;
15946;SDS011;8072;52.554;7.966;2022-10-16T12:34:14;6.10;;;1.63;;
15946;SDS011;8072;52.554;7.966;2022-10-16T12:36:51;3.90;;;1.70;;
15946;SDS011;8072;52.554;7.966;2022-10-16T12:39:22;8.43;;;1.50;;
15946;SDS011;8072;52.554;7.966;2022-10-16T12:42:00;4.97;;;1.50;;
15946;SDS011;8072;52.554;7.966;2022-10-16T12:44:31;8.80;;;2.00;;
15946;SDS011;8072;52.554;7.966;2022-10-16T12:46:59;4.27;;;1.70;;
15946;SDS011;8072;52.554;7.966;2022-10-16T12:49:29;8.43;;;1.93;;
15946;SDS011;8072;52.554;7.966;2022-10-16T12:52:04;4.33;;;1.90;;
15946;SDS011;8072;52.554;7.966;2022-10-16T12:54:37;5.33;;;1.70;;
15946;SDS011;8072;52.554;7.966;2022-10-16T13:11:05;6.97;;;2.23;;
15946;SDS011;8072;52.554;7.966;2022-10-16T13:19:23;6.23;;;2.20;;
15946;SDS011;8072;52.554;7.966;2022-10-16T13:24:42;7.90;;;2.40;;
15946;SDS011;8072;52.554;7.966;2022-10-16T13:30:21;6.03;;;2.40;;
15946;SDS011;8072;52.554;7.966;2022-10-16T13:32:48;5.77;;;1.97;;
15946;SDS011;8072;52.554;7.966;2022-10-16T13:35:21;5.77;;;1.90;;
15946;SDS011;8072;52.554;7.966;2022-10-16T13:37:49;7.77;;;2.30;;
15946;SDS011;8072;52.554;7.966;2022-10-16T13:40:22;8.27;;;2.13;;
15946;SDS011;8072;52.554;7.966;2022-10-16T13:42:49;7.57;;;2.00;;
15946;SDS011;8072;52.554;7.966;2022-10-16T13:45:20;4.23;;;1.67;;
15946;SDS011;8072;52.554;7.966;2022-10-16T13:47:47;3.43;;;1.57;;
15946;SDS011;8072;52.554;7.966;2022-10-16T13:50:13;4.33;;;1.73;;
15946;SDS011;8072;52.554;7.966;2022-10-16T13:52:41;7.00;;;1.70;;
15946;SDS011;8072;52.554;7.966;2022-10-16T13:55:14;7.10;;;1.50;;
15946;SDS011;8072;52.554;7.966;2022-10-16T13:57:42;6.03;;;1.30;;
15946;SDS011;8072;52.554;7.966;2022-10-16T14:00:17;4.87;;;1.30;;
15946;SDS011;8072;52.554;7.966;2022-10-16T14:02:43;5.83;;;1.40;;
15946;SDS011;8072;52.554;7.966;2022-10-16T14:05:09;5.03;;;1.33;;
15946;SDS011;8072;52.554;7.966;2022-10-16T14:07:35;6.37;;;1.30;;
15946;SDS011;8072;52.554;7.966;2022-10-16T14:10:04;6.70;;;1.40;;
15946;SDS011;8072;52.554;7.966;2022-10-16T14:12:32;10.57;;;1.40;;
15946;SDS011;8072;52.554;7.966;2022-10-16T14:14:59;6.63;;;1.37;;
15946;SDS011;8072;52.554;7.966;2022-10-16T14:17:26;5.00;;;1.40;;
15946;SDS011;8072;52.554;7.966;2022-10-16T14:19:55;5.60;;;1.27;;
15946;SDS011;8072;52.554;7.966;2022-10-16T14:22:30;5.83;;;1.53;;
15946;SDS011;8072;52.554;7.966;2022-10-16T14:24:57;7.87;;;1.23;;
15946;SDS011;8072;52.554;7.966;2022-10-16T14:27:31;6.97;;;1.60;;
15946;SDS011;8072;52.554;7.966;2022-10-16T14:30:33;4.93;;;1.37;;
15946;SDS011;8072;52.554;7.966;2022-10-16T14:32:59;6.23;;;1.63;;
15946;SDS011;8072;52.554;7.966;2022-10-16T14:35:34;4.63;;;1.80;;
15946;SDS011;8072;52.554;7.966;2022-10-16T14:38:02;8.47;;;1.53;;
15946;SDS011;8072;52.554;7.966;2022-10-16T14:40:31;4.13;;;1.10;;
15946;SDS011;8072;52.554;7.966;2022-10-16T14:43:02;7.67;;;1.50;;
15946;SDS011;8072;52.554;7.966;2022-10-16T14:45:30;5.50;;;1.70;;
15946;SDS011;8072;52.554;7.966;2022-10-16T14:47:59;5.23;;;1.10;;
15946;SDS011;8072;52.554;7.966;2022-10-16T14:50:27;8.97;;;1.60;;
15946;SDS011;8072;52.554;7.966;2022-10-16T14:52:53;5.17;;;1.40;;
15946;SDS011;8072;52.554;7.966;2022-10-16T14:55:20;9.87;;;1.53;;
15946;SDS011;8072;52.554;7.966;2022-10-16T14:57:45;4.87;;;1.47;;
15946;SDS011;8072;52.554;7.966;2022-10-16T15:02:44;4.60;;;1.43;;
15946;SDS011;8072;52.554;7.966;2022-10-16T15:05:12;5.67;;;1.47;;
15946;SDS011;8072;52.554;7.966;2022-10-16T15:07:47;6.73;;;1.40;;
15946;SDS011;8072;52.554;7.966;2022-10-16T15:10:14;4.47;;;1.27;;
15946;SDS011;8072;52.554;7.966;2022-10-16T15:12:41;3.40;;;1.17;;
15946;SDS011;8072;52.554;7.966;2022-10-16T15:17:48;6.07;;;1.43;;
15946;SDS011;8072;52.554;7.966;2022-10-16T15:20:19;6.43;;;1.33;;
15946;SDS011;8072;52.554;7.966;2022-10-16T15:22:45;6.07;;;1.40;;
15946;SDS011;8072;52.554;7.966;2022-10-16T15:25:28;5.50;;;1.20;;
15946;SDS011;8072;52.554;7.966;2022-10-16T15:28:00;9.13;;;1.47;;
15946;SDS011;8072;52.554;7.966;2022-10-16T15:30:27;5.20;;;1.30;;
15946;SDS011;8072;52.554;7.966;2022-10-16T15:32:53;4.40;;;1.20;;
15946;SDS011;8072;52.554;7.966;2022-10-16T15:35:19;8.87;;;1.30;;
15946;SDS011;8072;52.554;7.966;2022-10-16T15:37:45;5.90;;;1.50;;
15946;SDS011;8072;52.554;7.966;2022-10-16T15:40:12;5.80;;;1.87;;
15946;SDS011;8072;52.554;7.966;2022-10-16T15:42:38;6.43;;;1.80;;
15946;SDS011;8072;52.554;7.966;2022-10-16T15:45:04;8.43;;;1.87;;
15946;SDS011;8072;52.554;7.966;2022-10-16T15:47:31;6.07;;;1.27;;
15946;SDS011;8072;52.554;7.966;2022-10-16T15:49:57;7.70;;;1.70;;
15946;SDS011;8072;52.554;7.966;2022-10-16T15:52:23;13.93;;;2.33;;
15946;SDS011;8072;52.554;7.966;2022-10-16T15:54:49;8.03;;;1.47;;
15946;SDS011;8072;52.554;7.966;2022-10-16T15:57:15;5.37;;;1.20;;
15946;SDS011;8072;52.554;7.966;2022-10-16T15:59:41;5.50;;;1.47;;
15946;SDS011;8072;52.554;7.966;2022-10-16T16:02:07;7.20;;;1.80;;
15946;SDS011;8072;52.554;7.966;2022-10-16T16:04:34;7.27;;;1.60;;
15946;SDS011;8072;52.554;7.966;2022-10-16T16:07:00;6.10;;;1.57;;
15946;SDS011;8072;52.554;7.966;2022-10-16T16:09:26;5.97;;;1.27;;
15946;SDS011;8072;52.554;7.966;2022-10-16T16:11:54;5.80;;;1.60;;
15946;SDS011;8072;52.554;7.966;2022-10-16T16:14:20;5.67;;;1.73;;
15946;SDS011;8072;52.554;7.966;2022-10-16T16:16:46;7.70;;;3.13;;
15946;SDS011;8072;52.554;7.966;2022-10-16T16:19:12;10.67;;;3.40;;
15946;SDS011;8072;52.554;7.966;2022-10-16T16:21:38;6.53;;;3.23;;
15946;SDS011;8072;52.554;7.966;2022-10-16T16:24:03;6.87;;;2.23;;
15946;SDS011;8072;52.554;7.966;2022-10-16T16:26:33;4.90;;;2.13;;
15946;SDS011;8072;52.554;7.966;2022-10-16T16:29:03;6.97;;;3.07;;
15946;SDS011;8072;52.554;7.966;2022-10-16T16:31:29;9.37;;;4.40;;
15946;SDS011;8072;52.554;7.966;2022-10-16T16:33:56;6.97;;;4.30;;
15946;SDS011;8072;52.554;7.966;2022-10-16T16:36:23;7.43;;;3.30;;
15946;SDS011;8072;52.554;7.966;2022-10-16T16:38:49;12.57;;;2.97;;
15946;SDS011;8072;52.554;7.966;2022-10-16T16:41:17;5.33;;;2.60;;
15946;SDS011;8072;52.554;7.966;2022-10-16T16:43:45;6.70;;;2.03;;
15946;SDS011;8072;52.554;7.966;2022-10-16T16:46:16;3.93;;;1.67;;
15946;SDS011;8072;52.554;7.966;2022-10-16T16:48:42;3.77;;;1.80;;
15946;SDS011;8072;52.554;7.966;2022-10-16T16:51:09;9.43;;;2.13;;
15946;SDS011;8072;52.554;7.966;2022-10-16T16:53:44;3.77;;;1.30;;
15946;SDS011;8072;52.554;7.966;2022-10-16T16:56:12;4.07;;;1.40;;
15946;SDS011;8072;52.554;7.966;2022-10-16T16:58:38;2.20;;;1.23;;
15946;SDS011;8072;52.554;7.966;2022-10-16T17:01:05;9.20;;;1.70;;
15946;SDS011;8072;52.554;7.966;2022-10-16T17:03:32;3.60;;;1.43;;
15946;SDS011;8072;52.554;7.966;2022-10-16T17:06:00;4.07;;;1.50;;
15946;SDS011;8072;52.554;7.966;2022-10-16T17:08:27;4.83;;;1.50;;
15946;SDS011;8072;52.554;7.966;2022-10-16T17:10:55;9.27;;;1.80;;
15946;SDS011;8072;52.554;7.966;2022-10-16T17:13:25;5.00;;;1.60;;